sensor_id;sensor_type;location;lat;lon;timestamp;P1;durP1;ratioP1;P2;durP2;ratioP2
75486;SDS011;65009;44.762;21.516;2022-12-10T00:01:54;22.83;;;13.43;;
75486;SDS011;65009;44.762;21.516;2022-12-10T00:04:20;20.10;;;11.83;;
75486;SDS011;65009;44.762;21.516;2022-12-10T00:06:46;20.77;;;12.63;;
75486;SDS011;65009;44.762;21.516;2022-12-10T00:09:14;19.10;;;11.07;;
75486;SDS011;65009;44.762;21.516;2022-12-10T00:11:40;21.43;;;10.80;;
75486;SDS011;65009;44.762;21.516;2022-12-10T00:14:06;20.47;;;10.80;;
75486;SDS011;65009;44.762;21.516;2022-12-10T00:16:33;20.40;;;11.60;;
75486;SDS011;65009;44.762;21.516;2022-12-10T00:18:59;25.23;;;12.20;;
75486;SDS011;65009;44.762;21.516;2022-12-10T00:21:27;22.13;;;11.67;;
75486;SDS011;65009;44.762;21.516;2022-12-10T00:23:53;19.57;;;11.40;;
75486;SDS011;65009;44.762;21.516;2022-12-10T00:26:21;22.17;;;11.63;;
75486;SDS011;65009;44.762;21.516;2022-12-10T00:28:47;21.07;;;11.57;;
75486;SDS011;65009;44.762;21.516;2022-12-10T00:31:15;21.53;;;11.90;;
75486;SDS011;65009;44.762;21.516;2022-12-10T00:33:42;18.73;;;10.30;;
75486;SDS011;65009;44.762;21.516;2022-12-10T00:36:10;137.00;;;66.63;;
75486;SDS011;65009;44.762;21.516;2022-12-10T00:38:36;86.00;;;43.90;;
75486;SDS011;65009;44.762;21.516;2022-12-10T00:41:03;47.83;;;22.87;;
75486;SDS011;65009;44.762;21.516;2022-12-10T00:43:29;28.80;;;15.80;;
75486;SDS011;65009;44.762;21.516;2022-12-10T00:45:55;28.83;;;14.07;;
75486;SDS011;65009;44.762;21.516;2022-12-10T00:48:22;25.13;;;15.27;;
75486;SDS011;65009;44.762;21.516;2022-12-10T00:50:55;22.97;;;13.93;;
75486;SDS011;65009;44.762;21.516;2022-12-10T00:53:21;43.67;;;22.17;;
75486;SDS011;65009;44.762;21.516;2022-12-10T00:55:47;28.97;;;16.07;;
75486;SDS011;65009;44.762;21.516;2022-12-10T00:58:13;21.17;;;12.37;;
75486;SDS011;65009;44.762;21.516;2022-12-10T01:00:39;28.00;;;14.50;;
75486;SDS011;65009;44.762;21.516;2022-12-10T01:03:05;23.30;;;12.50;;
75486;SDS011;65009;44.762;21.516;2022-12-10T01:05:31;33.83;;;17.40;;
75486;SDS011;65009;44.762;21.516;2022-12-10T01:07:57;31.60;;;17.20;;
75486;SDS011;65009;44.762;21.516;2022-12-10T01:10:23;31.70;;;16.97;;
75486;SDS011;65009;44.762;21.516;2022-12-10T01:12:49;21.00;;;11.70;;
75486;SDS011;65009;44.762;21.516;2022-12-10T01:15:16;21.83;;;12.47;;
75486;SDS011;65009;44.762;21.516;2022-12-10T01:17:42;19.40;;;11.30;;
75486;SDS011;65009;44.762;21.516;2022-12-10T01:20:08;17.00;;;10.93;;
75486;SDS011;65009;44.762;21.516;2022-12-10T01:22:34;22.63;;;12.37;;
75486;SDS011;65009;44.762;21.516;2022-12-10T01:25:00;18.43;;;10.70;;
75486;SDS011;65009;44.762;21.516;2022-12-10T01:27:26;20.43;;;11.97;;
75486;SDS011;65009;44.762;21.516;2022-12-10T01:29:52;28.47;;;18.20;;
75486;SDS011;65009;44.762;21.516;2022-12-10T01:32:19;33.67;;;17.53;;
75486;SDS011;65009;44.762;21.516;2022-12-10T01:34:45;25.40;;;14.23;;
75486;SDS011;65009;44.762;21.516;2022-12-10T01:37:11;20.00;;;13.70;;
75486;SDS011;65009;44.762;21.516;2022-12-10T01:39:37;28.27;;;13.40;;
75486;SDS011;65009;44.762;21.516;2022-12-10T01:42:04;24.97;;;13.03;;
75486;SDS011;65009;44.762;21.516;2022-12-10T01:46:57;22.77;;;12.50;;
75486;SDS011;65009;44.762;21.516;2022-12-10T01:49:25;24.97;;;12.70;;
75486;SDS011;65009;44.762;21.516;2022-12-10T01:51:53;22.73;;;12.50;;
75486;SDS011;65009;44.762;21.516;2022-12-10T01:54:23;18.40;;;12.40;;
75486;SDS011;65009;44.762;21.516;2022-12-10T01:56:50;22.27;;;12.57;;
75486;SDS011;65009;44.762;21.516;2022-12-10T01:59:18;23.27;;;12.60;;
75486;SDS011;65009;44.762;21.516;2022-12-10T02:09:38;31.53;;;15.93;;
75486;SDS011;65009;44.762;21.516;2022-12-10T02:12:21;26.10;;;14.67;;
75486;SDS011;65009;44.762;21.516;2022-12-10T02:14:54;24.73;;;13.23;;
75486;SDS011;65009;44.762;21.516;2022-12-10T02:20:11;23.77;;;12.83;;
75486;SDS011;65009;44.762;21.516;2022-12-10T02:22:40;24.07;;;14.60;;
75486;SDS011;65009;44.762;21.516;2022-12-10T02:25:09;33.87;;;16.83;;
75486;SDS011;65009;44.762;21.516;2022-12-10T02:30:14;29.00;;;16.60;;
75486;SDS011;65009;44.762;21.516;2022-12-10T02:32:41;32.80;;;16.37;;
75486;SDS011;65009;44.762;21.516;2022-12-10T02:35:10;31.37;;;15.63;;
75486;SDS011;65009;44.762;21.516;2022-12-10T02:37:39;32.60;;;15.67;;
75486;SDS011;65009;44.762;21.516;2022-12-10T02:40:07;27.67;;;15.50;;
75486;SDS011;65009;44.762;21.516;2022-12-10T02:42:35;25.43;;;14.00;;
75486;SDS011;65009;44.762;21.516;2022-12-10T02:45:03;27.83;;;14.37;;
75486;SDS011;65009;44.762;21.516;2022-12-10T02:47:29;35.00;;;17.17;;
75486;SDS011;65009;44.762;21.516;2022-12-10T02:49:56;27.67;;;14.27;;
75486;SDS011;65009;44.762;21.516;2022-12-10T02:52:22;23.17;;;13.27;;
75486;SDS011;65009;44.762;21.516;2022-12-10T02:54:49;27.93;;;14.07;;
75486;SDS011;65009;44.762;21.516;2022-12-10T03:00:30;30.43;;;15.83;;
75486;SDS011;65009;44.762;21.516;2022-12-10T03:08:50;22.03;;;14.50;;
75486;SDS011;65009;44.762;21.516;2022-12-10T03:13:20;26.47;;;13.57;;
75486;SDS011;65009;44.762;21.516;2022-12-10T03:15:47;22.97;;;14.47;;
75486;SDS011;65009;44.762;21.516;2022-12-10T03:18:15;36.40;;;25.17;;
75486;SDS011;65009;44.762;21.516;2022-12-10T03:20:44;37.57;;;27.70;;
75486;SDS011;65009;44.762;21.516;2022-12-10T03:23:13;27.47;;;18.10;;
75486;SDS011;65009;44.762;21.516;2022-12-10T03:25:40;21.90;;;14.53;;
75486;SDS011;65009;44.762;21.516;2022-12-10T03:28:07;23.13;;;13.37;;
75486;SDS011;65009;44.762;21.516;2022-12-10T03:30:34;22.30;;;12.73;;
75486;SDS011;65009;44.762;21.516;2022-12-10T03:33:02;21.90;;;12.63;;
75486;SDS011;65009;44.762;21.516;2022-12-10T03:35:28;19.23;;;12.60;;
75486;SDS011;65009;44.762;21.516;2022-12-10T03:37:55;25.30;;;14.97;;
75486;SDS011;65009;44.762;21.516;2022-12-10T03:40:22;23.97;;;14.50;;
75486;SDS011;65009;44.762;21.516;2022-12-10T03:42:48;30.53;;;15.50;;
75486;SDS011;65009;44.762;21.516;2022-12-10T03:45:14;30.03;;;17.03;;
75486;SDS011;65009;44.762;21.516;2022-12-10T03:47:41;31.53;;;18.73;;
75486;SDS011;65009;44.762;21.516;2022-12-10T03:50:07;32.53;;;18.13;;
75486;SDS011;65009;44.762;21.516;2022-12-10T03:52:34;30.30;;;18.03;;
75486;SDS011;65009;44.762;21.516;2022-12-10T03:55:00;34.60;;;21.60;;
75486;SDS011;65009;44.762;21.516;2022-12-10T03:57:26;29.80;;;19.17;;
75486;SDS011;65009;44.762;21.516;2022-12-10T03:59:52;27.80;;;17.30;;
75486;SDS011;65009;44.762;21.516;2022-12-10T04:02:19;26.80;;;16.80;;
75486;SDS011;65009;44.762;21.516;2022-12-10T04:04:45;25.20;;;14.03;;
75486;SDS011;65009;44.762;21.516;2022-12-10T04:07:11;23.63;;;13.07;;
75486;SDS011;65009;44.762;21.516;2022-12-10T04:09:38;24.13;;;12.73;;
75486;SDS011;65009;44.762;21.516;2022-12-10T04:12:04;24.33;;;13.27;;
75486;SDS011;65009;44.762;21.516;2022-12-10T04:14:30;27.23;;;18.43;;
75486;SDS011;65009;44.762;21.516;2022-12-10T04:17:15;31.37;;;21.53;;
75486;SDS011;65009;44.762;21.516;2022-12-10T04:19:41;37.70;;;23.07;;
75486;SDS011;65009;44.762;21.516;2022-12-10T04:22:08;43.70;;;24.43;;
75486;SDS011;65009;44.762;21.516;2022-12-10T04:24:53;38.03;;;23.50;;
75486;SDS011;65009;44.762;21.516;2022-12-10T04:27:38;29.60;;;18.50;;
75486;SDS011;65009;44.762;21.516;2022-12-10T04:30:05;26.07;;;16.10;;
75486;SDS011;65009;44.762;21.516;2022-12-10T04:32:32;22.60;;;14.43;;
75486;SDS011;65009;44.762;21.516;2022-12-10T04:34:58;24.77;;;16.37;;
75486;SDS011;65009;44.762;21.516;2022-12-10T04:37:25;29.53;;;15.13;;
75486;SDS011;65009;44.762;21.516;2022-12-10T04:39:51;36.47;;;16.30;;
75486;SDS011;65009;44.762;21.516;2022-12-10T04:42:18;101.67;;;35.10;;
75486;SDS011;65009;44.762;21.516;2022-12-10T04:44:44;68.77;;;27.07;;
75486;SDS011;65009;44.762;21.516;2022-12-10T04:47:10;60.30;;;25.87;;
75486;SDS011;65009;44.762;21.516;2022-12-10T04:49:37;46.70;;;21.20;;
75486;SDS011;65009;44.762;21.516;2022-12-10T04:52:04;37.03;;;20.63;;
75486;SDS011;65009;44.762;21.516;2022-12-10T04:54:30;44.80;;;24.73;;
75486;SDS011;65009;44.762;21.516;2022-12-10T04:56:56;49.73;;;26.03;;
75486;SDS011;65009;44.762;21.516;2022-12-10T04:59:22;51.23;;;26.53;;
75486;SDS011;65009;44.762;21.516;2022-12-10T05:01:49;44.73;;;23.23;;
75486;SDS011;65009;44.762;21.516;2022-12-10T05:04:15;34.80;;;18.77;;
75486;SDS011;65009;44.762;21.516;2022-12-10T05:06:42;36.00;;;20.20;;
75486;SDS011;65009;44.762;21.516;2022-12-10T05:09:09;52.93;;;25.77;;
75486;SDS011;65009;44.762;21.516;2022-12-10T05:11:36;75.50;;;33.47;;
75486;SDS011;65009;44.762;21.516;2022-12-10T05:14:02;56.83;;;28.20;;
75486;SDS011;65009;44.762;21.516;2022-12-10T05:16:29;47.33;;;22.53;;
75486;SDS011;65009;44.762;21.516;2022-12-10T05:18:56;43.77;;;24.30;;
75486;SDS011;65009;44.762;21.516;2022-12-10T05:21:23;58.13;;;31.30;;
75486;SDS011;65009;44.762;21.516;2022-12-10T05:23:50;68.93;;;37.83;;
75486;SDS011;65009;44.762;21.516;2022-12-10T05:26:20;37.60;;;22.13;;
75486;SDS011;65009;44.762;21.516;2022-12-10T05:28:53;44.00;;;23.80;;
75486;SDS011;65009;44.762;21.516;2022-12-10T05:31:21;57.67;;;31.17;;
75486;SDS011;65009;44.762;21.516;2022-12-10T05:33:47;40.37;;;24.07;;
75486;SDS011;65009;44.762;21.516;2022-12-10T05:36:14;39.10;;;22.67;;
75486;SDS011;65009;44.762;21.516;2022-12-10T05:38:41;36.47;;;21.80;;
75486;SDS011;65009;44.762;21.516;2022-12-10T05:41:11;54.23;;;27.43;;
75486;SDS011;65009;44.762;21.516;2022-12-10T05:43:38;39.17;;;20.83;;
75486;SDS011;65009;44.762;21.516;2022-12-10T05:46:05;73.73;;;28.57;;
75486;SDS011;65009;44.762;21.516;2022-12-10T05:48:32;40.83;;;21.63;;
75486;SDS011;65009;44.762;21.516;2022-12-10T05:51:02;37.87;;;19.70;;
75486;SDS011;65009;44.762;21.516;2022-12-10T05:53:28;28.93;;;16.53;;
75486;SDS011;65009;44.762;21.516;2022-12-10T05:56:01;28.20;;;16.97;;
75486;SDS011;65009;44.762;21.516;2022-12-10T05:58:28;37.17;;;19.47;;
75486;SDS011;65009;44.762;21.516;2022-12-10T06:00:55;36.17;;;20.00;;
75486;SDS011;65009;44.762;21.516;2022-12-10T06:03:21;29.33;;;17.50;;
75486;SDS011;65009;44.762;21.516;2022-12-10T06:05:47;32.60;;;20.83;;
75486;SDS011;65009;44.762;21.516;2022-12-10T06:08:13;25.90;;;16.50;;
75486;SDS011;65009;44.762;21.516;2022-12-10T06:10:39;23.90;;;17.07;;
75486;SDS011;65009;44.762;21.516;2022-12-10T06:13:05;23.87;;;15.57;;
75486;SDS011;65009;44.762;21.516;2022-12-10T06:15:32;26.30;;;16.53;;
75486;SDS011;65009;44.762;21.516;2022-12-10T06:17:58;27.27;;;16.60;;
75486;SDS011;65009;44.762;21.516;2022-12-10T06:20:25;32.37;;;17.57;;
75486;SDS011;65009;44.762;21.516;2022-12-10T06:22:51;30.70;;;18.57;;
75486;SDS011;65009;44.762;21.516;2022-12-10T06:25:18;34.90;;;23.33;;
75486;SDS011;65009;44.762;21.516;2022-12-10T06:27:44;47.77;;;27.13;;
75486;SDS011;65009;44.762;21.516;2022-12-10T06:30:10;45.43;;;26.53;;
75486;SDS011;65009;44.762;21.516;2022-12-10T06:32:37;38.50;;;23.37;;
75486;SDS011;65009;44.762;21.516;2022-12-10T06:35:04;37.83;;;23.87;;
75486;SDS011;65009;44.762;21.516;2022-12-10T06:37:30;48.83;;;29.33;;
75486;SDS011;65009;44.762;21.516;2022-12-10T06:39:57;29.90;;;19.40;;
75486;SDS011;65009;44.762;21.516;2022-12-10T06:42:23;31.47;;;19.90;;
75486;SDS011;65009;44.762;21.516;2022-12-10T06:44:49;32.60;;;18.00;;
75486;SDS011;65009;44.762;21.516;2022-12-10T06:47:15;31.67;;;18.27;;
75486;SDS011;65009;44.762;21.516;2022-12-10T06:49:41;30.77;;;18.57;;
75486;SDS011;65009;44.762;21.516;2022-12-10T06:52:07;32.33;;;19.37;;
75486;SDS011;65009;44.762;21.516;2022-12-10T06:54:33;33.33;;;19.00;;
75486;SDS011;65009;44.762;21.516;2022-12-10T06:56:59;30.03;;;17.97;;
75486;SDS011;65009;44.762;21.516;2022-12-10T06:59:26;37.63;;;21.70;;
75486;SDS011;65009;44.762;21.516;2022-12-10T07:01:52;35.60;;;25.33;;
75486;SDS011;65009;44.762;21.516;2022-12-10T07:04:18;42.20;;;28.63;;
75486;SDS011;65009;44.762;21.516;2022-12-10T07:06:44;42.20;;;25.67;;
75486;SDS011;65009;44.762;21.516;2022-12-10T07:09:10;32.17;;;20.97;;
75486;SDS011;65009;44.762;21.516;2022-12-10T07:11:37;31.53;;;20.13;;
75486;SDS011;65009;44.762;21.516;2022-12-10T07:14:03;32.60;;;20.90;;
75486;SDS011;65009;44.762;21.516;2022-12-10T07:16:30;34.07;;;20.83;;
75486;SDS011;65009;44.762;21.516;2022-12-10T07:18:58;32.57;;;21.57;;
75486;SDS011;65009;44.762;21.516;2022-12-10T07:21:25;34.27;;;20.80;;
75486;SDS011;65009;44.762;21.516;2022-12-10T07:23:53;28.47;;;16.90;;
75486;SDS011;65009;44.762;21.516;2022-12-10T07:26:20;21.33;;;14.87;;
75486;SDS011;65009;44.762;21.516;2022-12-10T07:28:46;31.13;;;18.13;;
75486;SDS011;65009;44.762;21.516;2022-12-10T07:31:12;34.50;;;22.57;;
75486;SDS011;65009;44.762;21.516;2022-12-10T07:33:38;39.93;;;25.10;;
75486;SDS011;65009;44.762;21.516;2022-12-10T07:36:08;48.80;;;30.47;;
75486;SDS011;65009;44.762;21.516;2022-12-10T07:38:35;68.97;;;46.37;;
75486;SDS011;65009;44.762;21.516;2022-12-10T07:41:02;62.33;;;37.67;;
75486;SDS011;65009;44.762;21.516;2022-12-10T07:43:29;46.23;;;28.23;;
75486;SDS011;65009;44.762;21.516;2022-12-10T07:45:55;54.73;;;32.77;;
75486;SDS011;65009;44.762;21.516;2022-12-10T07:48:21;56.27;;;33.60;;
75486;SDS011;65009;44.762;21.516;2022-12-10T07:50:54;42.17;;;26.10;;
75486;SDS011;65009;44.762;21.516;2022-12-10T07:53:21;42.73;;;24.60;;
75486;SDS011;65009;44.762;21.516;2022-12-10T07:55:47;30.83;;;18.70;;
75486;SDS011;65009;44.762;21.516;2022-12-10T07:58:13;29.90;;;19.10;;
75486;SDS011;65009;44.762;21.516;2022-12-10T08:00:39;26.77;;;16.57;;
75486;SDS011;65009;44.762;21.516;2022-12-10T08:03:05;25.10;;;15.70;;
75486;SDS011;65009;44.762;21.516;2022-12-10T08:05:32;28.40;;;17.83;;
75486;SDS011;65009;44.762;21.516;2022-12-10T08:07:58;29.00;;;16.93;;
75486;SDS011;65009;44.762;21.516;2022-12-10T08:10:24;25.17;;;15.33;;
75486;SDS011;65009;44.762;21.516;2022-12-10T08:12:51;28.90;;;16.03;;
75486;SDS011;65009;44.762;21.516;2022-12-10T08:15:17;28.00;;;15.73;;
75486;SDS011;65009;44.762;21.516;2022-12-10T08:17:43;22.80;;;15.50;;
75486;SDS011;65009;44.762;21.516;2022-12-10T08:20:09;27.30;;;16.87;;
75486;SDS011;65009;44.762;21.516;2022-12-10T08:22:35;30.13;;;18.07;;
75486;SDS011;65009;44.762;21.516;2022-12-10T08:25:02;30.03;;;17.83;;
75486;SDS011;65009;44.762;21.516;2022-12-10T08:27:28;29.43;;;18.53;;
75486;SDS011;65009;44.762;21.516;2022-12-10T08:29:54;29.70;;;19.57;;
75486;SDS011;65009;44.762;21.516;2022-12-10T08:32:20;30.50;;;19.33;;
75486;SDS011;65009;44.762;21.516;2022-12-10T08:34:47;45.10;;;25.53;;
75486;SDS011;65009;44.762;21.516;2022-12-10T08:37:13;31.00;;;18.17;;
75486;SDS011;65009;44.762;21.516;2022-12-10T08:39:40;38.13;;;21.70;;
75486;SDS011;65009;44.762;21.516;2022-12-10T08:42:06;36.60;;;23.93;;
75486;SDS011;65009;44.762;21.516;2022-12-10T08:44:32;42.10;;;27.77;;
75486;SDS011;65009;44.762;21.516;2022-12-10T08:46:58;39.20;;;24.40;;
75486;SDS011;65009;44.762;21.516;2022-12-10T08:49:24;34.73;;;21.43;;
75486;SDS011;65009;44.762;21.516;2022-12-10T08:51:51;28.23;;;19.57;;
75486;SDS011;65009;44.762;21.516;2022-12-10T08:54:17;29.13;;;20.43;;
75486;SDS011;65009;44.762;21.516;2022-12-10T08:56:43;38.93;;;23.63;;
75486;SDS011;65009;44.762;21.516;2022-12-10T08:59:09;30.20;;;21.70;;
75486;SDS011;65009;44.762;21.516;2022-12-10T09:01:35;34.00;;;20.67;;
75486;SDS011;65009;44.762;21.516;2022-12-10T09:04:01;31.75;;;17.55;;
75486;SDS011;65009;44.762;21.516;2022-12-10T09:06:28;27.17;;;18.50;;
75486;SDS011;65009;44.762;21.516;2022-12-10T09:08:55;25.37;;;15.93;;
75486;SDS011;65009;44.762;21.516;2022-12-10T09:11:39;39.08;;;19.92;;
75486;SDS011;65009;44.762;21.516;2022-12-10T09:14:05;36.57;;;18.57;;
75486;SDS011;65009;44.762;21.516;2022-12-10T09:16:35;42.13;;;20.33;;
75486;SDS011;65009;44.762;21.516;2022-12-10T09:19:03;39.03;;;19.02;;
75486;SDS011;65009;44.762;21.516;2022-12-10T09:21:29;43.33;;;21.30;;
75486;SDS011;65009;44.762;21.516;2022-12-10T09:23:55;33.28;;;18.33;;
75486;SDS011;65009;44.762;21.516;2022-12-10T09:26:22;31.35;;;18.02;;
75486;SDS011;65009;44.762;21.516;2022-12-10T09:28:49;32.42;;;21.13;;
75486;SDS011;65009;44.762;21.516;2022-12-10T09:31:16;35.50;;;22.50;;
75486;SDS011;65009;44.762;21.516;2022-12-10T09:33:42;27.10;;;16.27;;
75486;SDS011;65009;44.762;21.516;2022-12-10T09:36:09;35.47;;;18.77;;
75486;SDS011;65009;44.762;21.516;2022-12-10T09:38:37;31.95;;;17.35;;
75486;SDS011;65009;44.762;21.516;2022-12-10T09:41:05;36.65;;;20.60;;
75486;SDS011;65009;44.762;21.516;2022-12-10T09:46:23;32.25;;;17.67;;
75486;SDS011;65009;44.762;21.516;2022-12-10T09:53:44;44.50;;;20.52;;
75486;SDS011;65009;44.762;21.516;2022-12-10T09:56:19;39.53;;;19.90;;
75486;SDS011;65009;44.762;21.516;2022-12-10T09:58:47;27.70;;;15.65;;
75486;SDS011;65009;44.762;21.516;2022-12-10T10:01:14;32.65;;;17.75;;
75486;SDS011;65009;44.762;21.516;2022-12-10T10:03:42;20.52;;;12.88;;
75486;SDS011;65009;44.762;21.516;2022-12-10T10:06:12;32.50;;;18.10;;
75486;SDS011;65009;44.762;21.516;2022-12-10T10:08:46;29.47;;;16.23;;
75486;SDS011;65009;44.762;21.516;2022-12-10T10:11:20;22.48;;;14.70;;
75486;SDS011;65009;44.762;21.516;2022-12-10T10:13:55;33.70;;;19.42;;
75486;SDS011;65009;44.762;21.516;2022-12-10T10:16:24;33.80;;;19.17;;
75486;SDS011;65009;44.762;21.516;2022-12-10T10:19:11;28.80;;;17.95;;
75486;SDS011;65009;44.762;21.516;2022-12-10T10:21:40;29.75;;;19.00;;
75486;SDS011;65009;44.762;21.516;2022-12-10T10:24:09;29.38;;;19.40;;
75486;SDS011;65009;44.762;21.516;2022-12-10T10:26:38;31.13;;;18.77;;
75486;SDS011;65009;44.762;21.516;2022-12-10T10:29:05;27.08;;;15.90;;
75486;SDS011;65009;44.762;21.516;2022-12-10T10:31:33;22.95;;;14.90;;
75486;SDS011;65009;44.762;21.516;2022-12-10T10:34:01;29.40;;;16.77;;
75486;SDS011;65009;44.762;21.516;2022-12-10T10:36:36;20.98;;;13.75;;
75486;SDS011;65009;44.762;21.516;2022-12-10T10:39:10;25.25;;;15.43;;
75486;SDS011;65009;44.762;21.516;2022-12-10T10:41:37;30.38;;;15.90;;
75486;SDS011;65009;44.762;21.516;2022-12-10T10:44:05;22.05;;;11.65;;
75486;SDS011;65009;44.762;21.516;2022-12-10T10:46:38;18.15;;;11.55;;
75486;SDS011;65009;44.762;21.516;2022-12-10T10:51:50;18.38;;;11.13;;
75486;SDS011;65009;44.762;21.516;2022-12-10T10:54:58;20.38;;;11.82;;
75486;SDS011;65009;44.762;21.516;2022-12-10T10:57:10;19.90;;;11.13;;
75486;SDS011;65009;44.762;21.516;2022-12-10T10:59:38;49.33;;;30.17;;
75486;SDS011;65009;44.762;21.516;2022-12-10T11:04:36;28.35;;;17.58;;
75486;SDS011;65009;44.762;21.516;2022-12-10T11:07:03;27.98;;;18.05;;
75486;SDS011;65009;44.762;21.516;2022-12-10T11:09:32;22.70;;;12.95;;
75486;SDS011;65009;44.762;21.516;2022-12-10T11:12:03;21.48;;;12.95;;
75486;SDS011;65009;44.762;21.516;2022-12-10T11:14:31;20.70;;;12.88;;
75486;SDS011;65009;44.762;21.516;2022-12-10T11:19:38;17.40;;;10.77;;
75486;SDS011;65009;44.762;21.516;2022-12-10T11:24:33;18.58;;;10.18;;
75486;SDS011;65009;44.762;21.516;2022-12-10T11:27:02;15.63;;;9.60;;
75486;SDS011;65009;44.762;21.516;2022-12-10T11:32:07;15.68;;;8.25;;
75486;SDS011;65009;44.762;21.516;2022-12-10T11:37:25;17.23;;;10.77;;
75486;SDS011;65009;44.762;21.516;2022-12-10T11:50:15;17.80;;;9.43;;
75486;SDS011;65009;44.762;21.516;2022-12-10T12:05:28;15.98;;;8.55;;
75486;SDS011;65009;44.762;21.516;2022-12-10T12:08:14;16.08;;;8.05;;
75486;SDS011;65009;44.762;21.516;2022-12-10T12:10:52;17.77;;;8.77;;
75486;SDS011;65009;44.762;21.516;2022-12-10T12:13:28;14.48;;;7.70;;
75486;SDS011;65009;44.762;21.516;2022-12-10T12:20:58;16.42;;;8.02;;
75486;SDS011;65009;44.762;21.516;2022-12-10T12:26:35;23.35;;;11.48;;
75486;SDS011;65009;44.762;21.516;2022-12-10T12:31:10;15.50;;;10.30;;
75486;SDS011;65009;44.762;21.516;2022-12-10T12:33:41;16.42;;;10.35;;
75486;SDS011;65009;44.762;21.516;2022-12-10T12:36:13;15.63;;;8.77;;
75486;SDS011;65009;44.762;21.516;2022-12-10T12:46:09;15.57;;;9.18;;
75486;SDS011;65009;44.762;21.516;2022-12-10T12:48:38;14.98;;;8.85;;
75486;SDS011;65009;44.762;21.516;2022-12-10T12:51:09;13.15;;;8.88;;
75486;SDS011;65009;44.762;21.516;2022-12-10T12:53:36;18.08;;;11.18;;
75486;SDS011;65009;44.762;21.516;2022-12-10T12:56:04;15.68;;;9.48;;
75486;SDS011;65009;44.762;21.516;2022-12-10T12:58:34;14.25;;;8.10;;
75486;SDS011;65009;44.762;21.516;2022-12-10T13:01:22;16.23;;;9.00;;
75486;SDS011;65009;44.762;21.516;2022-12-10T13:03:50;20.83;;;9.73;;
75486;SDS011;65009;44.762;21.516;2022-12-10T13:06:21;15.85;;;9.82;;
75486;SDS011;65009;44.762;21.516;2022-12-10T13:09:33;11.97;;;7.57;;
75486;SDS011;65009;44.762;21.516;2022-12-10T13:11:34;11.55;;;7.55;;
75486;SDS011;65009;44.762;21.516;2022-12-10T13:27:05;21.27;;;11.32;;
75486;SDS011;65009;44.762;21.516;2022-12-10T13:32:22;23.77;;;13.63;;
75486;SDS011;65009;44.762;21.516;2022-12-10T13:37:37;31.33;;;12.77;;
75486;SDS011;65009;44.762;21.516;2022-12-10T13:43:26;19.00;;;10.55;;
75486;SDS011;65009;44.762;21.516;2022-12-10T13:48:56;22.70;;;11.77;;
75486;SDS011;65009;44.762;21.516;2022-12-10T13:54:19;28.88;;;14.80;;
75486;SDS011;65009;44.762;21.516;2022-12-10T14:07:16;23.55;;;12.63;;
75486;SDS011;65009;44.762;21.516;2022-12-10T14:09:52;22.20;;;12.15;;
75486;SDS011;65009;44.762;21.516;2022-12-10T14:12:52;19.00;;;9.57;;
75486;SDS011;65009;44.762;21.516;2022-12-10T14:15:19;23.70;;;11.52;;
75486;SDS011;65009;44.762;21.516;2022-12-10T14:17:48;22.95;;;10.68;;
75486;SDS011;65009;44.762;21.516;2022-12-10T14:20:19;29.45;;;16.77;;
75486;SDS011;65009;44.762;21.516;2022-12-10T14:22:52;35.30;;;16.15;;
75486;SDS011;65009;44.762;21.516;2022-12-10T14:25:41;22.27;;;11.32;;
75486;SDS011;65009;44.762;21.516;2022-12-10T14:28:11;30.33;;;11.70;;
75486;SDS011;65009;44.762;21.516;2022-12-10T14:30:40;28.50;;;15.02;;
75486;SDS011;65009;44.762;21.516;2022-12-10T14:33:07;29.83;;;14.77;;
75486;SDS011;65009;44.762;21.516;2022-12-10T14:35:37;26.88;;;14.05;;
75486;SDS011;65009;44.762;21.516;2022-12-10T14:38:03;35.17;;;14.32;;
75486;SDS011;65009;44.762;21.516;2022-12-10T14:40:31;40.80;;;17.75;;
75486;SDS011;65009;44.762;21.516;2022-12-10T14:43:11;22.77;;;11.75;;
75486;SDS011;65009;44.762;21.516;2022-12-10T14:45:40;22.45;;;10.02;;
75486;SDS011;65009;44.762;21.516;2022-12-10T14:48:10;24.30;;;12.63;;
75486;SDS011;65009;44.762;21.516;2022-12-10T14:50:37;29.30;;;13.13;;
75486;SDS011;65009;44.762;21.516;2022-12-10T14:53:05;23.60;;;9.93;;
75486;SDS011;65009;44.762;21.516;2022-12-10T14:55:33;38.40;;;16.20;;
75486;SDS011;65009;44.762;21.516;2022-12-10T14:58:01;30.80;;;16.33;;
75486;SDS011;65009;44.762;21.516;2022-12-10T15:00:29;28.45;;;16.50;;
75486;SDS011;65009;44.762;21.516;2022-12-10T15:03:02;37.50;;;21.08;;
75486;SDS011;65009;44.762;21.516;2022-12-10T15:05:34;43.17;;;22.42;;
75486;SDS011;65009;44.762;21.516;2022-12-10T15:08:02;27.92;;;15.45;;
75486;SDS011;65009;44.762;21.516;2022-12-10T15:10:39;30.40;;;16.02;;
75486;SDS011;65009;44.762;21.516;2022-12-10T15:13:06;35.85;;;19.13;;
75486;SDS011;65009;44.762;21.516;2022-12-10T15:15:33;38.20;;;20.52;;
75486;SDS011;65009;44.762;21.516;2022-12-10T15:20:30;32.10;;;15.98;;
75486;SDS011;65009;44.762;21.516;2022-12-10T15:28:32;34.42;;;17.05;;
75486;SDS011;65009;44.762;21.516;2022-12-10T15:36:31;44.17;;;20.55;;
75486;SDS011;65009;44.762;21.516;2022-12-10T15:39:02;41.10;;;19.73;;
75486;SDS011;65009;44.762;21.516;2022-12-10T15:41:45;26.73;;;13.95;;
75486;SDS011;65009;44.762;21.516;2022-12-10T15:44:54;33.42;;;17.20;;
75486;SDS011;65009;44.762;21.516;2022-12-10T15:47:10;25.93;;;13.70;;
75486;SDS011;65009;44.762;21.516;2022-12-10T15:49:38;40.97;;;16.50;;
75486;SDS011;65009;44.762;21.516;2022-12-10T15:52:04;48.22;;;20.23;;
75486;SDS011;65009;44.762;21.516;2022-12-10T15:54:35;33.40;;;16.13;;
75486;SDS011;65009;44.762;21.516;2022-12-10T15:57:10;35.65;;;13.90;;
75486;SDS011;65009;44.762;21.516;2022-12-10T15:59:38;27.85;;;14.65;;
75486;SDS011;65009;44.762;21.516;2022-12-10T16:02:10;26.90;;;13.43;;
75486;SDS011;65009;44.762;21.516;2022-12-10T16:04:45;25.33;;;13.32;;
75486;SDS011;65009;44.762;21.516;2022-12-10T16:07:11;28.30;;;13.48;;
75486;SDS011;65009;44.762;21.516;2022-12-10T16:09:41;22.63;;;11.70;;
75486;SDS011;65009;44.762;21.516;2022-12-10T16:12:09;30.65;;;14.60;;
75486;SDS011;65009;44.762;21.516;2022-12-10T16:14:36;20.23;;;10.77;;
75486;SDS011;65009;44.762;21.516;2022-12-10T16:17:02;32.20;;;14.35;;
75486;SDS011;65009;44.762;21.516;2022-12-10T16:19:28;21.02;;;12.05;;
75486;SDS011;65009;44.762;21.516;2022-12-10T16:21:54;31.25;;;14.20;;
75486;SDS011;65009;44.762;21.516;2022-12-10T16:24:20;28.17;;;13.55;;
75486;SDS011;65009;44.762;21.516;2022-12-10T16:26:46;28.65;;;16.10;;
75486;SDS011;65009;44.762;21.516;2022-12-10T16:29:12;29.15;;;13.25;;
75486;SDS011;65009;44.762;21.516;2022-12-10T16:31:41;20.48;;;11.18;;
75486;SDS011;65009;44.762;21.516;2022-12-10T16:34:07;14.73;;;9.17;;
75486;SDS011;65009;44.762;21.516;2022-12-10T16:36:33;27.23;;;12.13;;
75486;SDS011;65009;44.762;21.516;2022-12-10T16:39:01;23.75;;;13.82;;